Kondopoga, Russia
Current Conditions -  °F | °C
As of 12:30 PM on Thursday 27 Nov 2014 (Local Time) from ULPB Reporting Station
Overcast Overcast  
Wind Chill: 24°   Ceiling: 700
Heat Index: 32°   Visibility: 6mi
Dew Point: 30°   Wind: 9mph
Humidity: 93%   Direction: 240°WSW
Pressure: 30.36"   Gusts: NA
Location:  62.2°N, 34.28°E
Report Text: ULPB 270930Z 24004MPS 9999 OVC007 M00/M01 Q1028 NOSIG RMKQBB210 QFE767/1022 SC055
Loading
Personal Weather Stations






























Interactive Weather Map New forecast layout! Learn more

10-Day Weather Forecast

Advertisements
Track Severe Weather on mobile